Station Historical Data
 
Daily Summary for January 16, 2019 Units:  English    Metric   Both
« Previous Day
Next Day »
Daily Weekly Monthly Yearly Custom
  Current: High: Low: Average:
Temperature: 52.5 °F 59.5 °F 49.5 °F 54.1 °F
Dew Point: 47.7 °F 49.1 °F 44.8 °F 46.8 °F
Humidity: 83% 85% 64% 76%
Wind Speed: 0mph 10mph 0mph 3.3mph
Wind Gust: 3mph 18mph - -
WindCalm - - SSW
Pressure: 30 in 30.1 in 30 in -
Precipitation: 0 in      
Historical Graphs
 
 
Tabular Data for January 16, 2019
Time Temperature Dew Point Pressure Wind Wind Speed Wind Gust Humidity Rainfall Rate (Hourly) solar Conditions
00:00 52.2 °F 46.6 °F 30.1 in Calm   3 mph 81% 0 in 0.00 W/m2 BKN
00:05 52.2 °F 46.6 °F 30.1 in SW 1 mph 2 mph 81% 0 in 0.00 W/m2 BKN
00:10 52.2 °F 46.6 °F 30.1 in Calm   4 mph 81% 0 in 0.00 W/m2 BKN
00:15 52.2 °F 46.6 °F 30.1 in SW 1 mph 3 mph 81% 0 in 0.00 W/m2 BKN
00:20 52.3 °F 46.6 °F 30.1 in SW 2 mph 5 mph 81% 0 in 0.00 W/m2 BKN
00:25 52.2 °F 46.4 °F 30.1 in SW 2 mph 5 mph 81% 0 in 0.00 W/m2 BKN
00:30 52.2 °F 46.4 °F 30.1 in SW 2 mph 6 mph 81% 0 in 0.00 W/m2 BKN
00:35 52.2 °F 46.6 °F 30.1 in SW 1 mph 8 mph 81% 0 in 0.00 W/m2 BKN
00:40 52.3 °F 46.8 °F 30.1 in SW 3 mph 6 mph 81% 0 in 0.00 W/m2 BKN
00:45 52.3 °F 46.8 °F 30.1 in SW 3 mph 6 mph 81% 0 in 0.00 W/m2 BKN
00:50 52.5 °F 46.9 °F 30.1 in SSW 1 mph 5 mph 81% 0 in 0.00 W/m2 BKN
00:55 52.5 °F 46.6 °F 30.1 in SW 2 mph 6 mph 80% 0 in 0.00 W/m2 BKN
01:00 52.5 °F 46.8 °F 30.1 in SW 1 mph 4 mph 81% 0 in 0.00 W/m2 BKN
01:05 52.5 °F 46.6 °F 30.1 in Calm   3 mph 80% 0 in 0.00 W/m2 BKN
01:10 52.5 °F 46.6 °F 30.1 in Calm   3 mph 80% 0 in 0.00 W/m2 BKN
01:15 52.3 °F 46.4 °F 30.1 in Calm   6 mph 80% 0 in 0.00 W/m2 BKN
01:20 52.2 °F 46.2 °F 30.1 in Calm   1 mph 80% 0 in 0.00 W/m2 BKN
01:25 52.2 °F 46 °F 30.1 in South 1 mph 2 mph 80% 0 in 0.00 W/m2 BKN
01:30 52 °F 46.2 °F 30.1 in SSE 1 mph 2 mph 81% 0 in 0.00 W/m2 BKN
01:35 51.6 °F 46 °F 30.1 in SSE 1 mph 4 mph 81% 0 in 0.00 W/m2 BKN
01:40 51.4 °F 45.9 °F 30.1 in SE 1 mph 3 mph 81% 0 in 0.00 W/m2 BKN
01:45 51.1 °F 45.5 °F 30.1 in Calm   2 mph 81% 0 in 0.00 W/m2 BKN
01:50 51.1 °F 45.3 °F 30.1 in SE 1 mph 2 mph 81% 0 in 0.00 W/m2 BKN
01:55 50.7 °F 45.1 °F 30.1 in SE 1 mph 2 mph 81% 0 in 0.00 W/m2 BKN
02:00 50.7 °F 45.3 °F 30.1 in SE 1 mph 2 mph 82% 0 in 0.00 W/m2 BKN
02:05 50.5 °F 45 °F 30.1 in Calm   2 mph 81% 0 in 0.00 W/m2 BKN
02:10 50.5 °F 45.1 °F 30.1 in Calm   1 mph 82% 0 in 0.00 W/m2 BKN
02:15 50.4 °F 45.1 °F 30.1 in Calm   1 mph 82% 0 in 0.00 W/m2 BKN
02:20 50.4 °F 45 °F 30.1 in Calm   3 mph 82% 0 in 0.00 W/m2 SCT
02:25 50.2 °F 45.1 °F 30.1 in NNE 1 mph 2 mph 83% 0 in 0.00 W/m2 SCT
02:30 50.2 °F 45.1 °F 30.1 in Calm     83% 0 in 0.00 W/m2 SCT
02:35 50 °F 45.1 °F 30.1 in Calm   1 mph 83% 0 in 0.00 W/m2 SCT
02:40 49.8 °F 45 °F 30.1 in North 1 mph 3 mph 83% 0 in 0.00 W/m2 SCT
02:45 49.8 °F 45 °F 30.1 in NNE 2 mph 3 mph 83% 0 in 0.00 W/m2 SCT
02:50 49.8 °F 45 °F 30.1 in Calm   3 mph 83% 0 in 0.00 W/m2 FEW
02:55 49.8 °F 44.8 °F 30.1 in NE 1 mph 2 mph 83% 0 in 0.00 W/m2 FEW
03:00 49.6 °F 44.8 °F 30.1 in East 1 mph 2 mph 83% 0 in 0.00 W/m2 FEW
03:05 49.6 °F 45.1 °F 30.1 in Calm   1 mph 84% 0 in 0.00 W/m2 FEW
03:10 49.6 °F 45 °F 30.1 in SW 1 mph 2 mph 84% 0 in 0.00 W/m2 FEW
03:15 49.5 °F 45 °F 30.1 in West 1 mph 2 mph 84% 0 in 0.00 W/m2 FEW
03:20 49.5 °F 44.8 °F 30.1 in Calm   1 mph 84% 0 in 0.00 W/m2 FEW
03:25 49.6 °F 45 °F 30.1 in West 1 mph 2 mph 84% 0 in 0.00 W/m2 FEW
03:30 49.6 °F 45.3 °F 30.1 in Calm   2 mph 85% 0 in 0.00 W/m2 FEW
03:35 49.6 °F 45.3 °F 30.1 in SW 1 mph 4 mph 85% 0 in 0.00 W/m2 FEW
03:40 49.8 °F 45.5 °F 30.1 in SW 1 mph 3 mph 85% 0 in 0.00 W/m2 FEW
03:45 49.8 °F 45.7 °F 30.1 in Calm   2 mph 85% 0 in 0.00 W/m2 FEW
03:50 49.8 °F 45.7 °F 30.1 in Calm   1 mph 85% 0 in 0.00 W/m2 FEW
03:55 50 °F 45.7 °F 30.1 in Calm   5 mph 85% 0 in 0.00 W/m2 FEW
04:00 50 °F 45.7 °F 30.1 in Calm   1 mph 85% 0 in 0.00 W/m2 FEW
04:05 50 °F 45.7 °F 30.1 in SSE 1 mph 4 mph 85% 0 in 0.00 W/m2 FEW
04:10 50.2 °F 45.5 °F 30.1 in Calm   2 mph 84% 0 in 0.00 W/m2 FEW
04:15 50 °F 45.3 °F 30.1 in Calm   3 mph 84% 0 in 0.00 W/m2 FEW
04:20 50 °F 45.3 °F 30.1 in Calm   4 mph 84% 0 in 0.00 W/m2 FEW
04:25 50.2 °F 45.3 °F 30.1 in Calm   3 mph 84% 0 in 0.00 W/m2 FEW
04:30 50.4 °F 45.9 °F 30.1 in SW 1 mph 4 mph 85% 0 in 0.00 W/m2 FEW
04:50 50.4 °F 45.7 °F 30.1 in Calm   2 mph 84% 0 in 0.00 W/m2 FEW
04:55 50.4 °F 45.7 °F 30.1 in Calm   1 mph 84% 0 in 0.00 W/m2 FEW
05:00 50.2 °F 45.5 °F 30.1 in Calm   1 mph 84% 0 in 0.00 W/m2 FEW
05:05 50.2 °F 45.5 °F 30.1 in Calm     84% 0 in 0.00 W/m2 FEW
05:10 50 °F 45.3 °F 30.1 in South 1 mph 3 mph 84% 0 in 0.00 W/m2 FEW
05:15 50 °F 45.3 °F 30.1 in South 1 mph 5 mph 84% 0 in 0.00 W/m2 FEW
05:20 50.2 °F 45.7 °F 30.1 in Calm   7 mph 84% 0 in 0.00 W/m2 FEW
05:25 50.4 °F 45.9 °F 30.1 in SSW 2 mph 5 mph 84% 0 in 0.00 W/m2 FEW
05:30 50.5 °F 45.9 °F 30.1 in Calm   2 mph 84% 0 in 0.00 W/m2 FEW
05:35 50.4 °F 45.3 °F 30.1 in Calm   2 mph 83% 0 in 0.00 W/m2 FEW
05:40 50.4 °F 45.3 °F 30.1 in SSW 1 mph 3 mph 83% 0 in 0.00 W/m2 FEW
05:45 50.2 °F 45.1 °F 30 in SW 1 mph 3 mph 83% 0 in 0.00 W/m2 FEW
05:50 50.4 °F 45.7 °F 30 in Calm   2 mph 84% 0 in 0.00 W/m2 FEW
05:55 50.4 °F 45.3 °F 30 in SW 2 mph 4 mph 83% 0 in 0.00 W/m2 FEW
06:00 50.4 °F 45.3 °F 30 in SW 1 mph 4 mph 83% 0 in 0.00 W/m2 FEW
06:05 50.4 °F 45.3 °F 30 in Calm   2 mph 83% 0 in 0.00 W/m2 FEW
06:10 50.4 °F 45.3 °F 30 in SSW 2 mph 6 mph 83% 0 in 0.00 W/m2 FEW
06:15 50.4 °F 45.3 °F 30 in SSW 2 mph 8 mph 83% 0 in 0.00 W/m2 FEW
06:20 50.4 °F 45.3 °F 30 in SSW 1 mph 4 mph 83% 0 in 0.00 W/m2 CLR
06:25 50.2 °F 45.3 °F 30 in Calm   4 mph 83% 0 in 0.00 W/m2 CLR
06:30 50.2 °F 45.1 °F 30 in SW 1 mph 6 mph 83% 0 in 0.00 W/m2 CLR
06:35 50.2 °F 45.1 °F 30 in SSW 1 mph 4 mph 83% 0 in 0.00 W/m2 CLR
06:40 50.2 °F 45.1 °F 30 in SSW 1 mph 8 mph 83% 0 in 0.00 W/m2 CLR
06:45 50.2 °F 45.1 °F 30 in SSW 2 mph 5 mph 83% 0 in 0.00 W/m2 CLR
06:50 50.2 °F 45.1 °F 30 in SW 3 mph 5 mph 83% 0 in 0.00 W/m2 FEW
06:55 50.2 °F 45.1 °F 30 in SW 2 mph 6 mph 83% 0 in 0.00 W/m2 FEW
07:00 50.4 °F 45.3 °F 30 in SSW 1 mph 9 mph 83% 0 in 0.00 W/m2 FEW
07:05 50.4 °F 45.3 °F 30.1 in SSW 1 mph 2 mph 83% 0 in 0.00 W/m2 FEW
07:10 50.4 °F 45.3 °F 30 in Calm   4 mph 83% 0 in 0.00 W/m2 FEW
07:15 50.4 °F 45.3 °F 30.1 in Calm   5 mph 83% 0 in 0.00 W/m2 FEW
07:20 50.4 °F 45.3 °F 30.1 in Calm   3 mph 83% 0 in 0.00 W/m2 FEW
07:25 50.4 °F 45.3 °F 30.1 in SSW 1 mph 4 mph 83% 0 in 0.00 W/m2 FEW
07:30 50.4 °F 45.3 °F 30.1 in SW 1 mph 5 mph 83% 0 in 0.00 W/m2 FEW
07:35 50.5 °F 45.5 °F 30.1 in SW 2 mph 5 mph 83% 0 in 0.00 W/m2 FEW
07:40 50.5 °F 45.7 °F 30.1 in SSW 2 mph 7 mph 83% 0 in 0.00 W/m2 FEW
07:45 50.7 °F 45.5 °F 30.1 in SW 1 mph 9 mph 82% 0 in 0.00 W/m2 FEW
07:50 51.1 °F 45.9 °F 30 in SW 3 mph 10 mph 82% 0 in 0.00 W/m2 CLR
07:55 51.3 °F 45.7 °F 30.1 in SSW 1 mph 8 mph 81% 0 in 0.00 W/m2 CLR
08:00 51.3 °F 45.7 °F 30 in SW 3 mph 8 mph 81% 0 in 0.00 W/m2 OVC
08:05 51.6 °F 46 °F 30 in SW 3 mph 12 mph 81% 0 in 0.00 W/m2 OVC
08:10 52 °F 46 °F 30 in SW 3 mph 13 mph 80% 0 in 0.00 W/m2 OVC
08:15 52.2 °F 45.9 °F 30 in SW 3 mph 8 mph 79% 0 in 6.00 W/m2 OVC
08:20 52.2 °F 45.9 °F 30 in SSW 3 mph 7 mph 79% 0 in 8.40 W/m2 FEW
08:25 52.2 °F 45.9 °F 30 in SW 2 mph 6 mph 79% 0 in 10.80 W/m2 FEW
08:30 52.2 °F 45.3 °F 30 in SW 2 mph 9 mph 78% 0 in 14.40 W/m2 FEW
08:35 52 °F 45.3 °F 30 in SW 3 mph 8 mph 78% 0 in 16.80 W/m2 FEW
08:40 52.2 °F 45.3 °F 30 in SW 3 mph 9 mph 78% 0 in 21.60 W/m2 FEW
08:45 52.2 °F 45.5 °F 30 in SW 5 mph 9 mph 78% 0 in 30.00 W/m2 FEW
08:50 52.3 °F 45.7 °F 30 in SW 5 mph 12 mph 78% 0 in 36.00 W/m2 FEW
08:55 52.5 °F 45.7 °F 30 in SW 5 mph 14 mph 77% 0 in 50.40 W/m2 FEW
09:00 52.9 °F 45.9 °F 30 in SW 5 mph 13 mph 77% 0 in 67.20 W/m2 FEW
09:05 53.1 °F 46 °F 30 in SW 5 mph 12 mph 77% 0 in 86.40 W/m2 FEW
09:10 53.2 °F 45.9 °F 30 in SW 6 mph 14 mph 76% 0 in 103.20 W/m2 FEW
09:15 53.4 °F 46 °F 30 in SW 5 mph 15 mph 76% 0 in 122.40 W/m2 FEW
09:20 53.6 °F 45.9 °F 30 in SW 6 mph 12 mph 75% 0 in 141.60 W/m2 FEW
09:25 53.8 °F 46 °F 30 in SW 5 mph 14 mph 75% 0 in 162.00 W/m2 FEW
09:30 54 °F 46 °F 30 in SW 5 mph 14 mph 75% 0 in 181.20 W/m2 FEW
09:35 54.1 °F 46 °F 30.1 in SW 7 mph 14 mph 74% 0 in 202.80 W/m2 FEW
09:40 54.1 °F 46 °F 30.1 in SW 7 mph 12 mph 74% 0 in 223.20 W/m2 FEW
09:45 54.3 °F 46.2 °F 30.1 in SW 6 mph 13 mph 74% 0 in 240.00 W/m2 FEW
09:50 54.5 °F 46.4 °F 30.1 in SW 7 mph 13 mph 74% 0 in 261.60 W/m2 FEW
09:55 54.7 °F 46 °F 30.1 in SW 7 mph 13 mph 73% 0 in 270.00 W/m2 FEW
10:00 54.7 °F 46.2 °F 30.1 in SW 5 mph 10 mph 73% 0 in 301.20 W/m2 FEW
10:05 54.9 °F 46.4 °F 30.1 in SW 9 mph 14 mph 73% 0 in 326.40 W/m2 FEW
10:10 55 °F 46.6 °F 30.1 in SW 6 mph 13 mph 73% 0 in 348.00 W/m2 FEW
10:15 55.4 °F 46.6 °F 30.1 in SW 3 mph 9 mph 72% 0 in 362.40 W/m2 FEW
10:20 55.6 °F 46.8 °F 30.1 in SW 6 mph 10 mph 72% 0 in 373.20 W/m2 SCT
10:25 55.8 °F 46.9 °F 30.1 in SW 6 mph 15 mph 72% 0 in 394.80 W/m2 SCT
10:30 55.9 °F 46.8 °F 30.1 in SW 6 mph 12 mph 71% 0 in 406.80 W/m2 SCT
10:35 55.9 °F 46.8 °F 30.1 in SW 6 mph 14 mph 71% 0 in 423.60 W/m2 SCT
10:40 56.1 °F 46.6 °F 30.1 in SW 6 mph 14 mph 70% 0 in 440.40 W/m2 SCT
10:45 56.3 °F 46.6 °F 30.1 in SW 7 mph 14 mph 70% 0 in 456.00 W/m2 SCT
10:50 56.5 °F 46.4 °F 30.1 in SSW 7 mph 15 mph 69% 0 in 465.60 W/m2 FEW
10:55 56.5 °F 46.4 °F 30.1 in SSW 6 mph 15 mph 69% 0 in 481.20 W/m2 FEW
11:00 56.7 °F 46.6 °F 30.1 in SW 7 mph 13 mph 69% 0 in 493.20 W/m2 FEW
11:05 56.7 °F 46.2 °F 30.1 in SW 9 mph 15 mph 68% 0 in 508.80 W/m2 FEW
11:10 56.8 °F 46.2 °F 30.1 in SW 6 mph 16 mph 68% 0 in 518.40 W/m2 FEW
11:15 56.8 °F 46.4 °F 30.1 in SW 9 mph 15 mph 68% 0 in 531.60 W/m2 FEW
11:20 57 °F 46.6 °F 30.1 in SW 8 mph 15 mph 68% 0 in 544.80 W/m2 FEW
11:25 57.2 °F 46.8 °F 30.1 in SSW 6 mph 13 mph 68% 0 in 550.80 W/m2 FEW
11:30 57.4 °F 46.6 °F 30.1 in SSW 5 mph 10 mph 67% 0 in 561.60 W/m2 FEW
11:35 57.6 °F 46.6 °F 30.1 in SSW 6 mph 14 mph 67% 0 in 571.20 W/m2 FEW
11:40 57.6 °F 46.6 °F 30.1 in SSW 6 mph 10 mph 67% 0 in 579.60 W/m2 FEW
11:45 57.6 °F 46.9 °F 30.1 in SW 5 mph 14 mph 68% 0 in 590.40 W/m2 FEW
11:50 57.6 °F 46.8 °F 30.1 in SW 5 mph 12 mph 67% 0 in 598.80 W/m2 FEW
11:55 57.9 °F 47.5 °F 30 in SSW 5 mph 10 mph 68% 0 in 603.60 W/m2 FEW
12:00 58.3 °F 47.3 °F 30 in SSW 5 mph 12 mph 67% 0 in 603.60 W/m2 FEW
12:05 58.1 °F 47.1 °F 30 in SSW 6 mph 12 mph 67% 0 in 622.80 W/m2 FEW
12:10 58.3 °F 46.9 °F 30 in SW 10 mph 15 mph 66% 0 in 618.00 W/m2 FEW
12:15 58.3 °F 46.9 °F 30 in SW 5 mph 13 mph 66% 0 in 631.20 W/m2 FEW
12:20 58.5 °F 47.1 °F 30 in SSW 6 mph 12 mph 66% 0 in 640.80 W/m2 FEW
12:25 58.5 °F 46.8 °F 30 in SSW 5 mph 12 mph 65% 0 in 648.00 W/m2 FEW
12:30 58.5 °F 46.8 °F 30 in SSW 6 mph 14 mph 65% 0 in 639.60 W/m2 FEW
12:35 58.6 °F 46.9 °F 30 in SSW 7 mph 13 mph 65% 0 in 651.60 W/m2 FEW
12:40 58.6 °F 46.9 °F 30 in SW 5 mph 13 mph 65% 0 in 648.00 W/m2 FEW
12:45 58.8 °F 47.1 °F 30 in SW 5 mph 15 mph 65% 0 in 662.40 W/m2 FEW
12:50 58.8 °F 47.1 °F 30 in SW 6 mph 13 mph 65% 0 in 654.00 W/m2 CLR
12:55 59 °F 47.1 °F 30 in SW 5 mph 10 mph 65% 0 in 662.40 W/m2 CLR
13:00 59.2 °F 46.9 °F 30 in SSW 7 mph 12 mph 64% 0 in 670.80 W/m2 CLR
13:05 59.2 °F 46.9 °F 30 in SW 6 mph 12 mph 64% 0 in 662.40 W/m2 CLR
13:10 58.8 °F 47.1 °F 30 in SSW 6 mph 10 mph 65% 0 in 662.40 W/m2 CLR
13:15 59.2 °F 47.3 °F 30 in SW 6 mph 10 mph 65% 0 in 673.20 W/m2 CLR
13:20 59.2 °F 46.9 °F 30 in SW 5 mph 12 mph 64% 0 in 660.00 W/m2 CLR
13:25 59.4 °F 47.1 °F 30 in SW 8 mph 18 mph 64% 0 in 670.80 W/m2 CLR
13:30 59.2 °F 46.9 °F 30 in SSW 7 mph 13 mph 64% 0 in 668.40 W/m2 CLR
13:35 59.2 °F 46.9 °F 30 in SW 6 mph 14 mph 64% 0 in 662.40 W/m2 CLR
13:40 59.4 °F 47.1 °F 30 in SW 6 mph 14 mph 64% 0 in 660.00 W/m2 CLR
13:45 59.2 °F 47.1 °F 30 in SSW 6 mph 14 mph 64% 0 in 651.60 W/m2 CLR
13:50 59.2 °F 46.9 °F 30 in SSW 6 mph 12 mph 64% 0 in 656.40 W/m2 FEW
13:55 59.2 °F 47.5 °F 30 in SSW 5 mph 13 mph 65% 0 in 654.00 W/m2 FEW
14:00 59.5 °F 47.7 °F 30 in SW 6 mph 13 mph 65% 0 in 648.00 W/m2 FEW
14:05 59.5 °F 47.8 °F 30 in SSW 6 mph 12 mph 65% 0 in 643.20 W/m2 FEW
14:10 59.5 °F 47.5 °F 30 in SSW 6 mph 13 mph 64% 0 in 639.60 W/m2 FEW
14:15 59.4 °F 47.5 °F 30 in SW 5 mph 14 mph 65% 0 in 626.40 W/m2 FEW
14:20 59.4 °F 47.7 °F 30 in SSW 7 mph 14 mph 65% 0 in 622.80 W/m2 FEW
14:25 59.4 °F 47.7 °F 30 in SSW 7 mph 10 mph 65% 0 in 618.00 W/m2 FEW
14:30 59.4 °F 47.7 °F 30 in SSW 6 mph 10 mph 65% 0 in 607.20 W/m2 FEW
14:35 59.5 °F 47.7 °F 30 in SW 7 mph 14 mph 65% 0 in 598.80 W/m2 FEW
14:40 59.2 °F 46.9 °F 30 in SW 6 mph 13 mph 64% 0 in 592.80 W/m2 FEW
14:45 59.2 °F 47.5 °F 30 in SSW 5 mph 14 mph 65% 0 in 584.40 W/m2 FEW
14:50 59.5 °F 47.7 °F 30 in SSW 5 mph 12 mph 65% 0 in 576.00 W/m2 FEW
14:55 59.4 °F 47.7 °F 30 in SSW 6 mph 13 mph 65% 0 in 567.60 W/m2 FEW
15:00 59.4 °F 47.7 °F 30 in SSW 6 mph 14 mph 65% 0 in 553.20 W/m2 FEW
15:05 59.5 °F 47.8 °F 30 in SSW 5 mph 13 mph 65% 0 in 544.80 W/m2 FEW
15:10 59.4 °F 47.7 °F 30 in SW 6 mph 12 mph 65% 0 in 531.60 W/m2 FEW
15:15 59.2 °F 47.8 °F 30 in SSW 6 mph 14 mph 66% 0 in 518.40 W/m2 FEW
15:20 59.4 °F 47.8 °F 30 in SSW 5 mph 12 mph 66% 0 in 506.40 W/m2 FEW
15:25 59.4 °F 47.8 °F 30 in SSW 5 mph 16 mph 66% 0 in 495.60 W/m2 FEW
15:30 59 °F 47.7 °F 30 in SSW 6 mph 12 mph 66% 0 in 483.60 W/m2 FEW
15:35 59.2 °F 48 °F 30 in SSW 6 mph 12 mph 67% 0 in 470.40 W/m2 FEW
15:40 59 °F 48 °F 30 in SSW 5 mph 12 mph 67% 0 in 453.60 W/m2 FEW
15:45 58.8 °F 47.8 °F 30 in SSW 6 mph 12 mph 67% 0 in 436.80 W/m2 FEW
15:50 58.8 °F 48.4 °F 30 in SSW 5 mph 10 mph 68% 0 in 426.00 W/m2 CLR
15:55 58.8 °F 48.4 °F 30 in SSW 5 mph 17 mph 68% 0 in 406.80 W/m2 CLR
16:00 58.6 °F 48.6 °F 30 in SSW 7 mph 12 mph 69% 0 in 396.00 W/m2 CLR
16:05 58.6 °F 48.6 °F 30 in SSW 7 mph 14 mph 69% 0 in 375.60 W/m2 CLR
16:10 58.6 °F 48.9 °F 30 in South 5 mph 12 mph 70% 0 in 361.20 W/m2 CLR
16:15 58.6 °F 48.7 °F 30 in SSW 6 mph 14 mph 70% 0 in 342.00 W/m2 CLR
16:20 58.5 °F 49.1 °F 30 in SSW 3 mph 12 mph 71% 0 in 322.80 W/m2 CLR
16:25 58.5 °F 48.9 °F 30 in SSW 6 mph 13 mph 71% 0 in 301.20 W/m2 CLR
16:30 58.3 °F 48.7 °F 30 in SSW 6 mph 13 mph 71% 0 in 278.40 W/m2 CLR
16:35 57.9 °F 48.9 °F 30 in SSW 6 mph 15 mph 72% 0 in 261.60 W/m2 CLR
16:40 57.9 °F 48.9 °F 30 in SSW 5 mph 12 mph 72% 0 in 236.40 W/m2 CLR
16:45 57.7 °F 49.1 °F 30 in SSW 5 mph 12 mph 73% 0 in 211.20 W/m2 CLR
16:50 57.6 °F 48.9 °F 30 in SSW 5 mph 13 mph 73% 0 in 189.60 W/m2 CLR
16:55 57.4 °F 48.7 °F 30 in SW 6 mph 13 mph 73% 0 in 156.00 W/m2 CLR
17:00 57.2 °F 48.9 °F 30 in SSW 5 mph 12 mph 74% 0 in 133.20 W/m2 CLR
17:05 57 °F 48.7 °F 30 in SSW 3 mph 10 mph 74% 0 in 116.40 W/m2 CLR
17:10 56.8 °F 49.1 °F 30 in SSW 5 mph 12 mph 75% 0 in 91.20 W/m2 CLR
17:15 56.5 °F 48.7 °F 30 in SSW 3 mph 12 mph 75% 0 in 36.00 W/m2 SCT
17:20 55.9 °F 48.6 °F 30 in SSW 3 mph 10 mph 76% 0 in 31.20 W/m2 SCT
17:25 55.8 °F 48.2 °F 30 in SSW 5 mph 10 mph 76% 0 in 27.60 W/m2 SCT
17:30 55.4 °F 48.4 °F 30 in SSW 5 mph 12 mph 77% 0 in 25.20 W/m2 SCT
17:35 55.2 °F 48.4 °F 30 in SSW 3 mph 9 mph 78% 0 in 21.60 W/m2 FEW
17:40 55 °F 48.4 °F 30 in SSW 3 mph 9 mph 78% 0 in 19.20 W/m2 CLR
17:45 54.9 °F 48.6 °F 30 in SSW 3 mph 12 mph 79% 0 in 16.80 W/m2 CLR
17:50 54.9 °F 48.4 °F 30 in SSW 3 mph 9 mph 79% 0 in 13.20 W/m2 CLR
17:55 54.7 °F 48.6 °F 30 in SSW 2 mph 8 mph 80% 0 in 10.80 W/m2 OVC
18:00 54.5 °F 48.6 °F 30 in SSW 3 mph 9 mph 80% 0 in 8.40 W/m2 OVC
18:05 54.3 °F 48.4 °F 30 in SW 3 mph 8 mph 80% 0 in 0.00 W/m2 OVC
18:10 54.1 °F 48.2 °F 30 in SW 3 mph 9 mph 80% 0 in 0.00 W/m2 OVC
18:15 54.1 °F 48 °F 30 in SSW 2 mph 8 mph 80% 0 in 0.00 W/m2 OVC
18:20 54.1 °F 48.4 °F 30 in SSW 2 mph 6 mph 81% 0 in 0.00 W/m2 OVC
18:25 54 °F 48.4 °F 30 in SSW 3 mph 6 mph 81% 0 in 0.00 W/m2 OVC
18:30 54 °F 48.2 °F 30 in SW 2 mph 9 mph 81% 0 in 0.00 W/m2 OVC
18:35 53.8 °F 48 °F 30 in SW 2 mph 6 mph 81% 0 in 0.00 W/m2 CLR
18:40 53.8 °F 48.4 °F 30 in SSW 2 mph 8 mph 82% 0 in 0.00 W/m2 CLR
18:45 53.8 °F 48.4 °F 30 in SW 2 mph 7 mph 82% 0 in 0.00 W/m2 CLR
18:50 53.6 °F 48.2 °F 30 in SW 2 mph 6 mph 82% 0 in 0.00 W/m2 CLR
18:55 53.4 °F 48 °F 30 in SW 3 mph 7 mph 82% 0 in 0.00 W/m2 CLR
19:00 53.2 °F 47.8 °F 30 in SW 3 mph 8 mph 82% 0 in 0.00 W/m2 CLR
19:05 53.4 °F 48.4 °F 30 in SW 2 mph 5 mph 83% 0 in 0.00 W/m2 CLR
19:10 53.4 °F 48.4 °F 30 in SW 3 mph 9 mph 83% 0 in 0.00 W/m2 CLR
19:15 53.2 °F 48.4 °F 30 in SW 5 mph 9 mph 83% 0 in 0.00 W/m2 CLR
19:20 53.2 °F 48.4 °F 30 in SSW 2 mph 6 mph 83% 0 in 0.00 W/m2 CLR
19:25 53.2 °F 48.4 °F 30 in SSW 3 mph 9 mph 83% 0 in 0.00 W/m2 CLR
19:30 53.4 °F 48.4 °F 30 in SSW 1 mph 9 mph 83% 0 in 0.00 W/m2 CLR
19:35 53.2 °F 48.4 °F 30 in SSW 2 mph 6 mph 83% 0 in 0.00 W/m2 CLR
19:40 53.2 °F 48.2 °F 30 in SSW 2 mph 5 mph 83% 0 in 0.00 W/m2 CLR
19:45 53.1 °F 48 °F 30 in SW 1 mph 3 mph 83% 0 in 0.00 W/m2 CLR
19:50 53.1 °F 48 °F 30 in SSW 1 mph 4 mph 83% 0 in 0.00 W/m2 CLR
19:55 52.9 °F 47.8 °F 30 in South 2 mph 7 mph 83% 0 in 0.00 W/m2 CLR
20:00 52.9 °F 47.8 °F 30 in Calm   4 mph 83% 0 in 0.00 W/m2 CLR
20:05 52.5 °F 47.7 °F 30 in Calm   3 mph 83% 0 in 0.00 W/m2 CLR
Juneau County Weather
Compliments of Weather Underground - 13 mb

past weather